Pagrindinis puslapis
METAR-TAF:

METAR-TAF

Oro uostai :

Sukhothai, Tailandas

platuma: 17-14-16N, ilguma: 099-49-05E, Aukštis: 55 m

Dabartinis oras

Ataskaita buvo paskelbta 29 minutes, ne 01:00 UTC
Vėjas 2 kt nuo kintamojo kryptimis
Temperatūra 28°C
Drėgmė 89%
Slėgis 1008 hPa
Matomumas 10 km arba daugiau
Mažai debesys ne aukštis 2500 ft

METAR: VTPO 050100Z VRB02KT 9999 FEW025 28/26 Q1008 NOSIG

Laikas: 08:29 (01:29 UTC)

Prognozė

Ataskaita buvo paskelbta 2 valandos ir 29 minutes, ne 23:00 UTC
Prognozė galioja nuo 05 metu 00 UTC su 05 metu 24 UTC
Vėjas 5 kt iš Pietvakarių
Matomumas 10 km arba daugiau
Išsisklaidę debesys ne aukštis 2500 ft
Laikinai
nuo 05 metu 08 UTC su 05 metu 12 UTC
Vėjas 15 kt iš Pietvakarių su gūsio iki 30 kt
Matomumas: 4000 m
Mažai debesys ne aukštis 1800 ft, Liūtiniai kamuoliniai debesys.
Su prošvaistėmis ne aukštis 2500 ft
perkūnija, lietus

TAF: VTPO 042300Z 0500/0524 22005KT 9999 SCT025 TEMPO 0508/0512 22015G30KT 4000 TSRA FEW018CB BKN025

Orai ataskaitas ir orų prognozės (METAR, TAF).

turimą stotys yra geltonos ir raudonos taškus žemėlapyje.

Perkelti pele per norėdami pamatyti stoties vardą.

Tada spustelėkite, norėdami matyti oro stebėjimo ir prognozės.

Norėdami pakeisti žemėlapį: spustelėkite ant žalios mygtukų su juodo kryžiaus žemyn,; žalią mygtuką su brūkšneliu, jei norite nutolinti; arba žalių rodyklių gretimoms žemėlapius.


METAR-TAF: